createdAt,value
2022-10-11T00:00:19.053Z,19.50
2022-10-11T00:02:46.511Z,19.50
2022-10-11T00:05:13.983Z,19.50
2022-10-11T00:07:41.298Z,19.50
2022-10-11T00:10:09.229Z,19.50
2022-10-11T00:12:36.959Z,19.50
2022-10-11T00:15:05.538Z,19.40
2022-10-11T00:17:33.284Z,19.40
2022-10-11T00:20:00.766Z,19.40
2022-10-11T00:22:28.044Z,19.30
2022-10-11T00:24:55.456Z,19.30
2022-10-11T00:27:22.761Z,19.30
2022-10-11T00:29:50.389Z,19.30
2022-10-11T00:32:17.726Z,19.30
2022-10-11T00:34:45.087Z,19.30
2022-10-11T00:37:12.363Z,19.30
2022-10-11T00:39:39.653Z,19.30
2022-10-11T00:42:16.005Z,19.30
2022-10-11T00:44:47.004Z,19.30
2022-10-11T00:47:21.038Z,19.30
2022-10-11T00:50:00.735Z,19.30
2022-10-11T00:52:39.207Z,19.20
2022-10-11T00:55:12.405Z,19.20
2022-10-11T00:57:41.998Z,19.20
2022-10-11T01:00:12.276Z,19.20
2022-10-11T01:02:40.981Z,19.20
2022-10-11T01:05:28.579Z,19.10
2022-10-11T01:07:59.137Z,19.10
2022-10-11T01:10:27.598Z,19.00
2022-10-11T01:13:01.164Z,19.00
2022-10-11T01:15:42.462Z,19.00
2022-10-11T01:18:09.735Z,19.00
2022-10-11T01:20:37.116Z,18.90
2022-10-11T01:23:35.388Z,18.90
2022-10-11T01:26:36.888Z,18.90
2022-10-11T01:29:13.407Z,18.80
2022-10-11T01:31:51.223Z,18.80
2022-10-11T01:34:41.915Z,18.70
2022-10-11T01:37:12.930Z,18.70
2022-10-11T01:39:48.734Z,18.70
2022-10-11T01:42:18.624Z,18.70
2022-10-11T01:44:48.985Z,18.60
2022-10-11T01:47:21.093Z,18.60
2022-10-11T01:49:59.379Z,18.60
2022-10-11T01:52:32.060Z,18.60
2022-10-11T01:55:22.037Z,18.50
2022-10-11T01:57:52.180Z,18.50
2022-10-11T02:00:21.216Z,18.40
2022-10-11T02:03:19.567Z,18.40
2022-10-11T02:05:50.900Z,18.40
2022-10-11T02:08:39.034Z,18.40
2022-10-11T02:11:45.973Z,18.40
2022-10-11T02:14:22.793Z,18.40
2022-10-11T02:16:54.288Z,18.30
2022-10-11T02:19:26.600Z,18.30
2022-10-11T02:22:01.521Z,18.30
2022-10-11T02:24:32.724Z,18.20
2022-10-11T02:27:01.578Z,18.20
2022-10-11T02:29:34.077Z,18.10
2022-10-11T02:32:02.100Z,18.20
2022-10-11T02:34:37.687Z,18.10
2022-10-11T02:37:20.820Z,18.10
2022-10-11T02:40:11.676Z,18.10
2022-10-11T02:43:08.993Z,18.00
2022-10-11T02:45:55.494Z,18.00
2022-10-11T02:48:25.135Z,18.00
2022-10-11T02:50:55.709Z,18.00
2022-10-11T02:53:24.379Z,18.00
2022-10-11T02:55:53.304Z,18.00
2022-10-11T02:58:21.877Z,18.00
2022-10-11T03:00:49.825Z,17.90
2022-10-11T03:03:17.287Z,17.90
2022-10-11T03:05:44.798Z,17.90
2022-10-11T03:08:14.603Z,17.80
2022-10-11T03:10:43.149Z,17.80
2022-10-11T03:13:12.814Z,17.80
2022-10-11T03:15:42.127Z,17.80
2022-10-11T03:18:09.417Z,17.80
2022-10-11T03:20:36.771Z,17.80
2022-10-11T03:23:04.027Z,17.80
2022-10-11T03:25:31.364Z,17.80
2022-10-11T03:27:58.692Z,17.80
2022-10-11T03:30:26.280Z,17.80
2022-10-11T03:32:53.631Z,17.70
2022-10-11T03:35:21.049Z,17.70
2022-10-11T03:37:48.849Z,17.80
2022-10-11T03:40:16.345Z,17.80
2022-10-11T03:42:43.776Z,17.80
2022-10-11T03:45:11.381Z,17.80
2022-10-11T03:47:39.445Z,17.70
2022-10-11T03:50:08.890Z,17.70
2022-10-11T03:52:36.324Z,17.70
2022-10-11T03:55:04.139Z,17.70
2022-10-11T03:57:31.521Z,17.70
2022-10-11T03:59:58.985Z,17.60
2022-10-11T04:02:26.914Z,17.60
2022-10-11T04:04:54.221Z,17.50
2022-10-11T04:07:21.712Z,17.50
2022-10-11T04:09:49.133Z,17.50
2022-10-11T04:12:16.712Z,17.50
2022-10-11T04:14:44.093Z,17.40
2022-10-11T04:17:11.596Z,17.40
2022-10-11T04:19:38.985Z,17.40
2022-10-11T04:22:06.633Z,17.40
2022-10-11T04:24:34.106Z,17.40
2022-10-11T04:27:01.553Z,17.30
2022-10-11T04:29:32.301Z,17.30
2022-10-11T04:32:00.396Z,17.30
2022-10-11T04:34:27.890Z,17.30
2022-10-11T04:36:55.206Z,17.30
2022-10-11T04:39:22.526Z,17.40
2022-10-11T04:41:49.868Z,17.40
2022-10-11T04:44:17.196Z,17.30
2022-10-11T04:46:44.483Z,17.30
2022-10-11T04:49:11.741Z,17.30
2022-10-11T04:51:39.056Z,17.30
2022-10-11T04:54:06.460Z,17.30
2022-10-11T04:56:33.932Z,17.20
2022-10-11T04:59:01.284Z,17.20
2022-10-11T05:01:28.586Z,17.20
2022-10-11T05:03:56.106Z,17.20
2022-10-11T05:06:23.450Z,17.20
2022-10-11T05:08:50.773Z,17.20
2022-10-11T05:11:18.303Z,17.20
2022-10-11T05:13:46.355Z,17.20
2022-10-11T05:16:15.198Z,17.20
2022-10-11T05:18:42.913Z,17.10
2022-10-11T05:21:21.547Z,17.10
2022-10-11T05:23:50.165Z,17.00
2022-10-11T05:26:19.056Z,17.00
2022-10-11T05:28:47.222Z,17.00
2022-10-11T05:31:15.333Z,17.00
2022-10-11T05:33:42.880Z,17.00
2022-10-11T05:36:10.927Z,17.00
2022-10-11T05:38:38.976Z,17.00
2022-10-11T05:41:09.123Z,17.10
2022-10-11T05:43:36.868Z,17.10
2022-10-11T05:46:04.545Z,17.10
2022-10-11T05:48:32.290Z,17.10
2022-10-11T05:51:02.138Z,17.10
2022-10-11T05:53:30.126Z,17.20
2022-10-11T05:55:58.020Z,17.20
2022-10-11T05:58:25.932Z,17.20
2022-10-11T06:00:53.486Z,17.20
2022-10-11T06:03:21.078Z,17.20
2022-10-11T06:05:52.110Z,17.20
2022-10-11T06:08:21.897Z,17.20
2022-10-11T06:10:49.193Z,17.30
2022-10-11T06:13:16.557Z,17.30
2022-10-11T06:15:43.796Z,17.30
2022-10-11T06:18:11.197Z,17.30
2022-10-11T06:20:38.562Z,17.30
2022-10-11T06:23:05.804Z,17.40
2022-10-11T06:25:33.140Z,17.40
2022-10-11T06:28:00.453Z,17.50
2022-10-11T06:30:27.901Z,17.50
2022-10-11T06:32:55.365Z,17.50
2022-10-11T06:35:22.666Z,17.60
2022-10-11T06:37:50.140Z,17.60
2022-10-11T06:40:17.526Z,17.70
2022-10-11T06:42:48.757Z,17.70
2022-10-11T06:45:16.066Z,17.80
2022-10-11T06:47:43.384Z,17.90
2022-10-11T06:50:10.705Z,17.90
2022-10-11T06:52:38.015Z,18.00
2022-10-11T06:55:05.779Z,18.10
2022-10-11T06:57:33.133Z,18.10
2022-10-11T07:00:00.457Z,18.20
2022-10-11T07:02:27.788Z,18.30
2022-10-11T07:04:55.163Z,18.30
2022-10-11T07:07:22.509Z,18.40
2022-10-11T07:09:49.971Z,18.50
2022-10-11T07:12:17.284Z,18.50
2022-10-11T07:14:44.586Z,18.50
2022-10-11T07:17:12.015Z,18.60
2022-10-11T07:19:39.303Z,18.60
2022-10-11T07:22:06.608Z,18.70
2022-10-11T07:24:33.915Z,18.70
2022-10-11T07:27:01.268Z,18.70
2022-10-11T07:29:28.548Z,18.80
2022-10-11T07:31:56.003Z,18.90
2022-10-11T07:34:23.270Z,18.90
2022-10-11T07:36:50.725Z,18.90
2022-10-11T07:39:18.109Z,19.00
2022-10-11T07:41:46.152Z,19.00
2022-10-11T07:44:14.765Z,19.00
2022-10-11T07:46:42.226Z,19.00
2022-10-11T07:49:09.584Z,19.10
2022-10-11T07:51:36.884Z,19.20
2022-10-11T07:54:07.250Z,19.20
2022-10-11T07:56:35.130Z,19.30
2022-10-11T07:59:05.193Z,19.30
2022-10-11T08:01:33.238Z,19.40
2022-10-11T08:04:00.822Z,19.40
2022-10-11T08:06:32.401Z,19.40
2022-10-11T08:09:01.338Z,19.40
2022-10-11T08:11:34.514Z,19.50
2022-10-11T08:14:02.139Z,19.70
2022-10-11T08:16:29.387Z,19.70
2022-10-11T08:18:57.151Z,19.80
2022-10-11T08:21:26.332Z,19.90
2022-10-11T08:23:53.675Z,20.00
2022-10-11T08:26:21.637Z,20.00
2022-10-11T08:28:49.313Z,20.10
2022-10-11T08:31:17.230Z,20.10
2022-10-11T08:33:44.765Z,20.20
2022-10-11T08:36:12.671Z,20.30
2022-10-11T08:38:40.445Z,20.40
2022-10-11T08:41:29.504Z,20.40
2022-10-11T08:44:06.059Z,20.50
2022-10-11T08:46:38.846Z,20.60
2022-10-11T08:49:07.657Z,20.70
2022-10-11T08:51:47.783Z,20.70
2022-10-11T08:54:31.716Z,20.80
2022-10-11T08:57:02.470Z,20.80
2022-10-11T08:59:46.461Z,20.90
2022-10-11T09:02:25.979Z,21.00
2022-10-11T09:04:55.376Z,21.10
2022-10-11T09:07:54.287Z,21.20
2022-10-11T09:10:56.632Z,21.20
2022-10-11T09:14:00.528Z,21.30
2022-10-11T09:16:42.818Z,21.30
2022-10-11T09:19:46.105Z,21.40
2022-10-11T09:22:30.741Z,21.40
2022-10-11T09:25:16.675Z,21.40
2022-10-11T09:28:02.326Z,21.50
2022-10-11T09:30:31.425Z,21.60
2022-10-11T09:33:08.741Z,21.80
2022-10-11T09:35:49.328Z,21.90
2022-10-11T09:38:31.352Z,21.90
2022-10-11T09:41:41.517Z,21.90
2022-10-11T09:44:19.589Z,22.10
2022-10-11T09:46:48.849Z,22.20
2022-10-11T09:49:19.977Z,22.40
2022-10-11T09:51:54.137Z,22.60
2022-10-11T09:54:40.981Z,22.60
2022-10-11T09:57:20.040Z,22.70
2022-10-11T10:00:02.250Z,22.80
2022-10-11T10:02:42.088Z,23.00
2022-10-11T10:05:09.466Z,23.20
2022-10-11T10:07:41.025Z,23.40
2022-10-11T10:10:34.129Z,23.60
2022-10-11T10:13:04.932Z,23.70
2022-10-11T10:15:35.519Z,24.00
2022-10-11T10:18:06.012Z,24.40
2022-10-11T10:20:35.513Z,24.80
2022-10-11T10:23:21.316Z,25.20
2022-10-11T10:25:51.271Z,26.10
2022-10-11T10:28:22.950Z,27.80
2022-10-11T10:30:59.881Z,29.30
2022-10-11T10:33:36.106Z,30.40
2022-10-11T10:36:09.160Z,30.90
2022-10-11T10:38:42.952Z,30.80
2022-10-11T10:41:13.224Z,30.30
2022-10-11T10:43:43.429Z,29.60
2022-10-11T10:46:29.637Z,29.00
2022-10-11T10:49:34.898Z,28.60
2022-10-11T10:52:20.635Z,28.50
2022-10-11T10:55:20.766Z,29.50
2022-10-11T10:58:16.329Z,29.80
2022-10-11T11:00:52.064Z,29.70
2022-10-11T11:03:40.332Z,29.30
2022-10-11T11:06:13.753Z,30.10
2022-10-11T11:08:47.888Z,31.50
2022-10-11T11:11:29.990Z,33.10
2022-10-11T11:14:09.077Z,33.90
2022-10-11T11:16:46.225Z,34.70
2022-10-11T11:19:16.549Z,35.80
2022-10-11T11:22:07.715Z,35.50
2022-10-11T11:25:23.182Z,35.50
2022-10-11T11:28:05.204Z,34.50
2022-10-11T11:30:51.526Z,33.30
2022-10-11T11:33:54.380Z,33.30
2022-10-11T11:36:45.543Z,33.20
2022-10-11T11:39:35.723Z,33.10
2022-10-11T11:42:09.550Z,32.40
2022-10-11T11:44:49.786Z,31.30
2022-10-11T11:47:43.552Z,30.20
2022-10-11T11:50:23.369Z,30.10
2022-10-11T11:53:05.329Z,30.60
2022-10-11T11:55:44.924Z,30.70
2022-10-11T11:58:45.961Z,30.70
2022-10-11T12:01:32.910Z,30.50
2022-10-11T12:04:07.159Z,31.00
2022-10-11T12:06:47.789Z,31.80
2022-10-11T12:09:23.876Z,32.00
2022-10-11T12:11:57.533Z,32.20
2022-10-11T12:14:35.853Z,32.60
2022-10-11T12:17:22.734Z,32.50
2022-10-11T12:20:20.479Z,32.00
2022-10-11T12:22:53.216Z,31.50
2022-10-11T12:25:29.639Z,31.50
2022-10-11T12:27:59.409Z,31.50
2022-10-11T12:30:47.723Z,31.20
2022-10-11T12:33:22.797Z,30.40
2022-10-11T12:35:52.929Z,29.90
2022-10-11T12:38:33.923Z,29.40
2022-10-11T12:41:10.447Z,28.80
2022-10-11T12:44:08.227Z,28.40
2022-10-11T12:47:04.490Z,27.90
2022-10-11T12:49:32.419Z,27.60
2022-10-11T12:52:43.568Z,27.40
2022-10-11T12:55:37.595Z,27.20
2022-10-11T12:58:15.093Z,27.10
2022-10-11T13:01:02.417Z,26.90
2022-10-11T13:03:35.252Z,26.70
2022-10-11T13:06:19.323Z,26.60
2022-10-11T13:08:53.269Z,26.60
2022-10-11T13:11:24.711Z,26.60
2022-10-11T13:13:58.103Z,26.60
2022-10-11T13:16:29.763Z,26.60
2022-10-11T13:19:00.155Z,26.30
2022-10-11T13:21:29.572Z,26.10
2022-10-11T13:24:02.538Z,26.00
2022-10-11T13:26:31.351Z,25.90
2022-10-11T13:29:00.370Z,25.80
2022-10-11T13:31:27.933Z,25.80
2022-10-11T13:33:59.109Z,25.70
2022-10-11T13:36:27.868Z,25.60
2022-10-11T13:39:00.051Z,25.60
2022-10-11T13:41:29.961Z,25.50
2022-10-11T13:43:59.610Z,25.40
2022-10-11T13:46:29.386Z,25.40
2022-10-11T13:49:27.224Z,25.20
2022-10-11T13:52:02.676Z,25.10
2022-10-11T13:54:58.625Z,25.30
2022-10-11T13:57:34.014Z,25.30
2022-10-11T14:00:02.595Z,25.30
2022-10-11T14:02:39.830Z,25.10
2022-10-11T14:05:07.320Z,25.10
2022-10-11T14:07:38.464Z,25.10
2022-10-11T14:10:07.035Z,25.00
2022-10-11T14:12:44.267Z,25.00
2022-10-11T14:15:36.063Z,25.00
2022-10-11T14:18:41.079Z,24.90
2022-10-11T14:21:20.444Z,24.90
2022-10-11T14:23:51.319Z,24.80
2022-10-11T14:26:19.936Z,24.80
2022-10-11T14:28:59.341Z,24.70
2022-10-11T14:31:30.391Z,24.70
2022-10-11T14:33:58.350Z,24.70
2022-10-11T14:36:26.104Z,24.70
2022-10-11T14:38:53.689Z,24.60
2022-10-11T14:41:21.156Z,24.50
2022-10-11T14:43:48.506Z,24.50
2022-10-11T14:46:24.767Z,24.50
2022-10-11T14:48:56.040Z,24.50
2022-10-11T14:51:31.505Z,24.60
2022-10-11T14:53:59.159Z,24.50
2022-10-11T14:56:26.495Z,24.50
2022-10-11T14:58:53.861Z,24.50
2022-10-11T15:01:21.124Z,24.50
2022-10-11T15:03:48.502Z,24.50
2022-10-11T15:06:25.218Z,24.40
2022-10-11T15:08:52.569Z,24.30
2022-10-11T15:11:21.805Z,24.30
2022-10-11T15:13:49.668Z,24.30
2022-10-11T15:16:20.324Z,24.30
2022-10-11T15:18:51.993Z,24.30
2022-10-11T15:21:24.738Z,24.20
2022-10-11T15:23:55.176Z,24.20
2022-10-11T15:26:28.573Z,24.10
2022-10-11T15:28:57.203Z,24.10
2022-10-11T15:31:24.612Z,24.10
2022-10-11T15:33:52.065Z,24.00
2022-10-11T15:36:22.090Z,24.00
2022-10-11T15:38:49.890Z,24.00
2022-10-11T15:41:20.034Z,23.90
2022-10-11T15:43:48.633Z,23.90
2022-10-11T15:46:19.162Z,23.90
2022-10-11T15:48:47.038Z,23.80
2022-10-11T15:51:14.578Z,23.80
2022-10-11T15:53:42.136Z,23.80
2022-10-11T15:56:15.307Z,23.80
2022-10-11T15:58:42.749Z,23.70
2022-10-11T16:01:14.446Z,23.70
2022-10-11T16:03:42.220Z,23.70
2022-10-11T16:06:10.658Z,23.70
2022-10-11T16:08:38.570Z,23.70
2022-10-11T16:11:07.891Z,23.60
2022-10-11T16:13:35.987Z,23.70
2022-10-11T16:16:09.184Z,23.60
2022-10-11T16:18:37.181Z,23.60
2022-10-11T16:21:15.468Z,23.60
2022-10-11T16:23:43.320Z,23.60
2022-10-11T16:26:13.464Z,23.50
2022-10-11T16:28:42.217Z,23.50
2022-10-11T16:31:13.175Z,23.50
2022-10-11T16:33:45.958Z,23.40
2022-10-11T16:36:40.307Z,23.40
2022-10-11T16:39:14.849Z,23.30
2022-10-11T16:41:42.738Z,23.30
2022-10-11T16:44:15.126Z,23.20
2022-10-11T16:46:43.596Z,23.20
2022-10-11T16:49:10.956Z,23.20
2022-10-11T16:51:38.241Z,23.20
2022-10-11T16:54:05.820Z,23.20
2022-10-11T16:56:38.840Z,23.10
2022-10-11T16:59:06.354Z,23.10
2022-10-11T17:01:33.657Z,23.10
2022-10-11T17:04:01.110Z,23.00
2022-10-11T17:06:28.538Z,23.10
2022-10-11T17:08:55.997Z,23.00
2022-10-11T17:11:24.066Z,23.00
2022-10-11T17:13:53.443Z,23.00
2022-10-11T17:16:21.956Z,23.00
2022-10-11T17:18:50.121Z,23.00
2022-10-11T17:21:18.851Z,22.90
2022-10-11T17:23:46.748Z,22.90
2022-10-11T17:26:26.470Z,22.90
2022-10-11T17:28:56.240Z,22.90
2022-10-11T17:31:25.129Z,22.90
2022-10-11T17:33:54.351Z,22.90
2022-10-11T17:36:27.969Z,22.80
2022-10-11T17:38:55.283Z,22.80
2022-10-11T17:41:22.655Z,22.80
2022-10-11T17:43:50.258Z,22.70
2022-10-11T17:46:18.795Z,22.70
2022-10-11T17:48:46.229Z,22.70
2022-10-11T17:51:16.943Z,22.70
2022-10-11T17:53:46.499Z,22.60
2022-10-11T17:56:16.240Z,22.60
2022-10-11T17:58:43.791Z,22.60
2022-10-11T18:01:14.567Z,22.60
2022-10-11T18:03:42.897Z,22.50
2022-10-11T18:06:13.067Z,22.50
2022-10-11T18:08:41.168Z,22.40
2022-10-11T18:11:13.990Z,22.30
2022-10-11T18:13:45.936Z,22.30
2022-10-11T18:16:20.162Z,22.20
2022-10-11T18:18:48.237Z,22.10
2022-10-11T18:21:16.268Z,22.00
2022-10-11T18:23:43.720Z,21.90
2022-10-11T18:26:13.135Z,21.90
2022-10-11T18:28:41.840Z,21.90
2022-10-11T18:31:13.642Z,21.90
2022-10-11T18:33:42.431Z,21.80
2022-10-11T18:36:13.384Z,21.80
2022-10-11T18:38:47.082Z,21.80
2022-10-11T18:41:16.767Z,21.80
2022-10-11T18:43:52.467Z,21.80
2022-10-11T18:46:21.138Z,21.70
2022-10-11T18:48:50.829Z,21.70
2022-10-11T18:51:20.985Z,21.70
2022-10-11T18:53:48.860Z,21.60
2022-10-11T18:56:17.906Z,21.60
2022-10-11T18:58:45.300Z,21.60
2022-10-11T19:01:18.748Z,21.50
2022-10-11T19:03:49.611Z,21.50
2022-10-11T19:06:19.343Z,21.40
2022-10-11T19:08:49.181Z,21.40
2022-10-11T19:11:17.382Z,21.40
2022-10-11T19:13:44.747Z,21.30
2022-10-11T19:16:15.091Z,21.30
2022-10-11T19:18:44.380Z,21.20
2022-10-11T19:21:13.045Z,21.20
2022-10-11T19:23:42.474Z,21.20
2022-10-11T19:26:28.866Z,21.20
2022-10-11T19:28:58.578Z,21.20
2022-10-11T19:31:26.207Z,21.20
2022-10-11T19:33:53.949Z,21.10
2022-10-11T19:36:21.530Z,21.10
2022-10-11T19:38:51.073Z,21.10
2022-10-11T19:41:20.214Z,21.10
2022-10-11T19:43:47.883Z,21.00
2022-10-11T19:46:44.461Z,21.00
2022-10-11T19:49:09.528Z,21.00
2022-10-11T19:51:38.194Z,20.90
2022-10-11T19:54:09.752Z,20.90
2022-10-11T19:56:37.228Z,20.80
2022-10-11T19:59:06.419Z,20.70
2022-10-11T20:01:35.539Z,20.70
2022-10-11T20:04:06.281Z,20.60
2022-10-11T20:06:38.471Z,20.70
2022-10-11T20:11:54.632Z,20.60
2022-10-11T20:14:21.959Z,20.50
2022-10-11T20:16:50.634Z,20.50
2022-10-11T20:19:18.798Z,20.50
2022-10-11T20:21:47.331Z,20.40
2022-10-11T20:24:14.756Z,20.40
2022-10-11T20:26:42.064Z,20.30
2022-10-11T20:29:09.366Z,20.30
2022-10-11T20:31:41.735Z,20.30
2022-10-11T20:34:10.368Z,20.30
2022-10-11T20:36:38.024Z,20.30
2022-10-11T20:39:06.520Z,20.30
2022-10-11T20:41:37.200Z,20.30
2022-10-11T20:44:05.208Z,20.30
2022-10-11T20:46:35.125Z,20.30
2022-10-11T20:49:05.937Z,20.30
2022-10-11T20:51:36.421Z,20.30
2022-10-11T20:54:04.720Z,20.20
2022-10-11T20:56:33.721Z,20.20
2022-10-11T20:59:01.390Z,20.20
2022-10-11T21:01:35.164Z,20.20
2022-10-11T21:04:03.900Z,20.10
2022-10-11T21:06:33.345Z,20.10
2022-10-11T21:09:00.971Z,20.20
2022-10-11T21:11:30.586Z,20.20
2022-10-11T21:13:59.820Z,20.20
2022-10-11T21:16:27.907Z,20.10
2022-10-11T21:18:57.280Z,20.10
2022-10-11T21:21:25.444Z,20.10
2022-10-11T21:24:00.300Z,20.10
2022-10-11T21:26:28.081Z,20.00
2022-10-11T21:28:55.485Z,20.00
2022-10-11T21:31:23.517Z,20.00
2022-10-11T21:33:51.480Z,20.00
2022-10-11T21:36:21.045Z,20.00
2022-10-11T21:38:49.668Z,20.00
2022-10-11T21:41:23.025Z,20.00
2022-10-11T21:43:50.616Z,19.90
2022-10-11T21:46:42.013Z,19.90
2022-10-11T21:49:14.518Z,19.90
2022-10-11T21:51:41.992Z,19.90
2022-10-11T21:54:09.564Z,19.80
2022-10-11T21:56:37.072Z,19.80
2022-10-11T21:59:06.655Z,19.80
2022-10-11T22:01:37.109Z,19.80
2022-10-11T22:04:07.466Z,19.80
2022-10-11T22:06:36.007Z,19.80
2022-10-11T22:09:03.936Z,19.80
2022-10-11T22:11:31.300Z,19.80
2022-10-11T22:13:58.741Z,19.80
2022-10-11T22:16:26.146Z,19.80
2022-10-11T22:18:54.014Z,19.80
2022-10-11T22:21:23.208Z,19.80
2022-10-11T22:23:53.190Z,19.80
2022-10-11T22:26:26.291Z,19.80
2022-10-11T22:28:53.829Z,19.80
2022-10-11T22:31:22.221Z,19.80
2022-10-11T22:33:54.585Z,19.80
2022-10-11T22:36:24.292Z,19.70
2022-10-11T22:38:52.913Z,19.70
2022-10-11T22:41:20.707Z,19.70
2022-10-11T22:43:48.220Z,19.70
2022-10-11T22:46:15.605Z,19.60
2022-10-11T22:48:43.333Z,19.70
2022-10-11T22:51:10.665Z,19.70
2022-10-11T22:53:38.853Z,19.70
2022-10-11T22:56:06.456Z,19.60
2022-10-11T22:58:33.812Z,19.70
2022-10-11T23:01:12.199Z,19.60
2022-10-11T23:03:39.671Z,19.60
2022-10-11T23:06:14.660Z,19.50
2022-10-11T23:08:42.051Z,19.50
2022-10-11T23:11:11.464Z,19.50
2022-10-11T23:13:38.976Z,19.50
2022-10-11T23:16:08.626Z,19.50
2022-10-11T23:18:35.996Z,19.40
2022-10-11T23:21:04.508Z,19.40
2022-10-11T23:23:31.994Z,19.40
2022-10-11T23:26:03.081Z,19.40
2022-10-11T23:28:30.548Z,19.40
2022-10-11T23:30:57.839Z,19.40
2022-10-11T23:33:25.345Z,19.40
2022-10-11T23:35:52.669Z,19.40
2022-10-11T23:38:20.168Z,19.30
2022-10-11T23:40:47.664Z,19.30
2022-10-11T23:43:14.947Z,19.30
2022-10-11T23:45:44.088Z,19.20
2022-10-11T23:48:11.505Z,19.20
2022-10-11T23:50:38.850Z,19.20
2022-10-11T23:53:06.223Z,19.20
2022-10-11T23:55:33.498Z,19.20
2022-10-11T23:58:00.985Z,19.20
